Time;durP1;ratioP1;P1;durP2;ratioP2;P2;SDS_P1;SDS_P2;PMS_P1;PMS_P2;Temp;Humidity;BMP_temperature;BMP_pressure;BME280_temperature;BME280_humidity;BME280_pressure;Samples;Min_cycle;Max_cycle;Signal;HPM_P1;HPM_P2
2021/03/26 00:02:01;;;;;;;15.18;9.90;;;7.60;3.10;;;;;;5082391;28;20063;-74
2021/03/26 00:04:28;;;;;;;19.17;10.80;;;7.70;3.00;;;;;;5087605;28;20105;-74
2021/03/26 00:06:55;;;;;;;19.15;10.27;;;7.60;2.70;;;;;;5093030;28;20052;-74
2021/03/26 00:09:25;;;;;;;17.05;9.93;;;7.50;3.30;;;;;;5091501;28;20054;-75
2021/03/26 00:11:55;;;;;;;17.40;9.90;;;7.60;3.30;;;;;;5087529;28;20512;-75
2021/03/26 00:14:23;;;;;;;15.50;9.90;;;7.60;3.30;;;;;;5093421;28;20075;-74
2021/03/26 00:16:50;;;;;;;18.40;11.40;;;7.60;3.30;;;;;;5091745;28;20052;-73
2021/03/26 00:19:18;;;;;;;18.48;10.30;;;7.80;3.40;;;;;;5092365;28;20040;-74
2021/03/26 00:21:45;;;;;;;19.48;11.55;;;7.80;2.80;;;;;;5087182;28;20075;-75
2021/03/26 00:24:12;;;;;;;19.65;11.35;;;8.00;1.70;;;;;;5090653;28;20497;-73
2021/03/26 00:26:41;;;;;;;18.20;9.57;;;8.00;1.20;;;;;;5091024;28;20052;-73
2021/03/26 00:29:23;;;;;;;19.50;9.25;;;8.10;1.30;;;;;;5090887;28;20056;-73
2021/03/26 00:31:50;;;;;;;19.73;9.73;;;8.10;1.30;;;;;;5082584;28;20046;-72
2021/03/26 00:34:18;;;;;;;17.00;9.43;;;8.10;1.20;;;;;;5088914;28;20559;-73
2021/03/26 00:36:46;;;;;;;22.02;10.07;;;8.10;1.20;;;;;;5086199;28;20040;-73
2021/03/26 00:39:13;;;;;;;20.27;10.20;;;8.20;1.00;;;;;;5087946;28;20420;-73
2021/03/26 00:41:41;;;;;;;13.57;9.40;;;8.10;1.00;;;;;;5086637;28;20050;-74
2021/03/26 00:44:09;;;;;;;15.55;9.25;;;8.20;1.00;;;;;;5091470;28;20086;-74
2021/03/26 00:46:38;;;;;;;16.40;9.10;;;8.10;1.00;;;;;;5092845;28;20123;-75
2021/03/26 00:49:06;;;;;;;19.98;10.23;;;8.00;1.00;;;;;;5091479;28;20039;-74
2021/03/26 00:51:33;;;;;;;18.85;10.15;;;8.10;1.00;;;;;;5087374;28;20650;-75
2021/03/26 00:54:00;;;;;;;16.35;9.65;;;8.10;1.00;;;;;;5089703;28;20505;-75
2021/03/26 00:56:27;;;;;;;16.63;9.55;;;8.00;1.30;;;;;;5092377;28;20133;-74
2021/03/26 00:58:55;;;;;;;14.95;9.80;;;7.90;1.30;;;;;;5089656;28;20052;-75
2021/03/26 01:01:22;;;;;;;18.98;10.15;;;7.80;1.60;;;;;;5087051;28;20573;-73
2021/03/26 01:03:59;;;;;;;13.65;9.23;;;7.90;1.90;;;;;;5089299;28;20062;-73
2021/03/26 01:06:41;;;;;;;17.17;9.02;;;7.80;2.10;;;;;;5089613;28;20113;-73
2021/03/26 01:09:09;;;;;;;14.63;9.32;;;7.70;2.20;;;;;;5091003;28;20397;-73
2021/03/26 01:11:39;;;;;;;15.70;9.15;;;7.70;3.20;;;;;;5081800;28;20059;-73
2021/03/26 01:14:24;;;;;;;15.23;9.85;;;7.60;3.30;;;;;;5090965;28;20052;-73
2021/03/26 01:16:53;;;;;;;14.18;9.20;;;7.50;3.20;;;;;;5088565;28;20417;-73
2021/03/26 01:19:23;;;;;;;15.95;8.93;;;7.40;3.50;;;;;;5088216;28;20432;-74
2021/03/26 01:21:51;;;;;;;16.48;10.15;;;7.50;4.10;;;;;;5085513;28;20044;-74
2021/03/26 01:24:20;;;;;;;19.27;9.65;;;7.30;4.30;;;;;;5092172;28;20052;-74
2021/03/26 01:26:50;;;;;;;14.55;9.70;;;7.30;5.20;;;;;;5091712;28;20086;-74
2021/03/26 01:29:28;;;;;;;17.50;10.32;;;7.30;4.70;;;;;;5087372;28;20044;-72
2021/03/26 01:32:14;;;;;;;17.60;9.95;;;7.20;4.80;;;;;;5082485;28;20586;-71
2021/03/26 01:34:46;;;;;;;19.15;11.07;;;7.10;5.50;;;;;;5080741;28;20129;-73
2021/03/26 01:37:13;;;;;;;15.40;10.35;;;7.00;5.90;;;;;;5088371;28;20048;-74
2021/03/26 01:39:41;;;;;;;17.05;9.88;;;7.00;6.30;;;;;;5088494;28;20043;-74
2021/03/26 01:42:22;;;;;;;20.10;11.38;;;7.00;6.60;;;;;;5086603;28;20127;-73
2021/03/26 01:44:49;;;;;;;16.60;9.48;;;6.90;6.50;;;;;;5091913;28;20387;-74
2021/03/26 01:47:16;;;;;;;18.77;9.95;;;7.00;6.30;;;;;;5091339;28;20043;-74
2021/03/26 01:49:44;;;;;;;17.10;10.52;;;6.90;6.80;;;;;;5086193;28;20463;-74
2021/03/26 01:52:11;;;;;;;22.20;11.35;;;6.90;6.90;;;;;;5084446;28;20070;-72
2021/03/26 01:54:39;;;;;;;17.95;10.57;;;6.80;6.90;;;;;;5089526;28;20101;-73
2021/03/26 01:57:07;;;;;;;16.95;10.63;;;6.80;7.40;;;;;;5089847;28;20539;-73
2021/03/26 01:59:35;;;;;;;18.73;10.90;;;6.70;7.90;;;;;;5086465;28;20048;-72
2021/03/26 02:02:08;;;;;;;19.42;10.57;;;6.80;8.40;;;;;;5081855;28;20039;-72
2021/03/26 02:04:38;;;;;;;20.65;10.10;;;6.80;8.20;;;;;;5083936;28;20052;-73
2021/03/26 02:07:06;;;;;;;18.00;10.85;;;7.00;7.20;;;;;;5086885;28;20135;-73
2021/03/26 02:09:37;;;;;;;19.10;10.15;;;7.00;7.50;;;;;;5083799;28;20069;-73
2021/03/26 02:12:08;;;;;;;16.83;10.38;;;7.10;7.20;;;;;;5081208;28;20044;-73
2021/03/26 02:14:38;;;;;;;22.17;10.35;;;7.10;6.70;;;;;;5085561;28;20497;-75
2021/03/26 02:17:09;;;;;;;18.77;10.38;;;7.10;6.70;;;;;;5089230;28;20055;-73
2021/03/26 02:19:41;;;;;;;15.13;10.00;;;6.90;7.00;;;;;;5084289;28;20059;-73
2021/03/26 02:22:10;;;;;;;22.77;10.68;;;6.90;7.70;;;;;;5083475;28;20198;-72
2021/03/26 02:24:40;;;;;;;17.90;9.90;;;6.80;7.90;;;;;;5086667;28;20048;-72
2021/03/26 02:27:10;;;;;;;17.08;10.43;;;6.80;8.70;;;;;;5086045;28;20059;-71
2021/03/26 02:29:37;;;;;;;18.35;11.68;;;6.70;8.70;;;;;;5086501;28;20052;-72
2021/03/26 02:32:09;;;;;;;20.15;11.73;;;6.60;10.00;;;;;;5082386;28;20044;-72
2021/03/26 02:34:37;;;;;;;19.60;12.15;;;6.50;11.00;;;;;;5088813;28;20413;-72
2021/03/26 02:37:08;;;;;;;21.02;12.38;;;6.50;12.20;;;;;;5087431;28;20777;-73
2021/03/26 02:39:41;;;;;;;23.88;12.35;;;6.60;12.00;;;;;;5088791;28;20054;-73
2021/03/26 02:42:18;;;;;;;24.85;12.25;;;6.60;12.40;;;;;;5083099;28;20076;-74
2021/03/26 02:45:01;;;;;;;23.70;12.40;;;6.60;11.60;;;;;;5089980;28;20047;-74
2021/03/26 02:47:36;;;;;;;19.67;12.82;;;6.50;11.90;;;;;;5084521;28;20080;-74
2021/03/26 02:50:09;;;;;;;20.67;12.27;;;6.30;12.10;;;;;;5082394;28;20241;-72
2021/03/26 02:52:46;;;;;;;21.27;11.90;;;6.30;12.80;;;;;;5087415;28;20494;-73
2021/03/26 02:55:23;;;;;;;20.70;11.52;;;6.20;13.30;;;;;;5089753;28;20044;-73
2021/03/26 02:57:56;;;;;;;21.45;12.55;;;6.30;13.30;;;;;;5090432;28;20175;-72
2021/03/26 03:00:28;;;;;;;29.08;14.15;;;6.30;13.00;;;;;;5084449;28;20096;-74
2021/03/26 03:02:58;;;;;;;24.45;13.95;;;6.30;13.30;;;;;;5086312;28;20486;-73
2021/03/26 03:05:30;;;;;;;24.23;14.13;;;6.20;14.70;;;;;;5086221;28;20055;-73
2021/03/26 03:08:02;;;;;;;23.67;14.80;;;6.40;14.40;;;;;;5087699;28;20497;-72
2021/03/26 03:10:39;;;;;;;22.20;14.98;;;6.30;14.90;;;;;;5079740;28;20052;-72
2021/03/26 03:13:13;;;;;;;25.05;14.10;;;6.50;15.50;;;;;;5084593;28;20047;-72
2021/03/26 03:15:45;;;;;;;23.67;13.82;;;6.60;14.10;;;;;;5087637;28;20056;-72
2021/03/26 03:18:21;;;;;;;21.17;13.55;;;6.60;12.90;;;;;;5089029;28;20455;-73
2021/03/26 03:20:58;;;;;;;23.30;13.63;;;6.60;12.70;;;;;;5081491;28;20117;-73
2021/03/26 03:23:32;;;;;;;25.10;14.60;;;6.60;12.50;;;;;;5086985;28;20051;-73
2021/03/26 03:26:09;;;;;;;25.83;13.80;;;6.60;12.70;;;;;;5083986;28;20506;-73
2021/03/26 03:28:44;;;;;;;25.77;14.88;;;6.60;12.90;;;;;;5087793;28;20044;-72
2021/03/26 03:31:19;;;;;;;19.52;12.70;;;6.60;13.20;;;;;;5082392;28;20044;-72
2021/03/26 03:33:59;;;;;;;18.13;14.05;;;6.60;13.30;;;;;;5085149;28;20044;-72
2021/03/26 03:36:37;;;;;;;19.63;13.48;;;6.60;13.20;;;;;;5087667;28;20055;-71
2021/03/26 03:39:13;;;;;;;23.15;13.38;;;6.60;13.20;;;;;;5087844;28;20052;-72
2021/03/26 03:41:47;;;;;;;25.08;14.25;;;6.60;13.20;;;;;;5087070;28;20051;-72
2021/03/26 03:44:22;;;;;;;24.27;14.10;;;6.70;12.90;;;;;;5093089;28;20127;-73
2021/03/26 03:46:57;;;;;;;20.85;12.63;;;6.60;13.00;;;;;;5093687;28;20655;-71
2021/03/26 03:49:35;;;;;;;23.73;14.13;;;6.70;13.10;;;;;;5092140;28;20101;-72
2021/03/26 03:52:08;;;;;;;24.00;14.38;;;6.80;13.10;;;;;;5086597;28;20056;-71
2021/03/26 03:54:39;;;;;;;24.75;14.30;;;6.80;12.50;;;;;;5093155;28;20154;-72
2021/03/26 03:57:16;;;;;;;22.13;13.43;;;6.90;12.20;;;;;;5092058;28;20114;-72
2021/03/26 03:59:51;;;;;;;25.63;14.65;;;7.00;11.80;;;;;;5087097;28;20048;-72
2021/03/26 04:02:25;;;;;;;25.38;13.05;;;7.00;11.20;;;;;;5089717;28;20112;-72
2021/03/26 04:04:58;;;;;;;23.48;13.25;;;7.00;10.80;;;;;;5092069;28;20098;-72
2021/03/26 04:07:32;;;;;;;24.73;14.38;;;7.00;10.80;;;;;;5090053;28;20059;-72
2021/03/26 04:10:05;;;;;;;22.38;12.70;;;7.00;10.40;;;;;;5086808;28;21312;-72
2021/03/26 04:12:39;;;;;;;20.77;13.80;;;7.10;10.30;;;;;;5088977;28;20043;-72
2021/03/26 04:15:14;;;;;;;24.30;14.00;;;7.10;10.30;;;;;;5089114;28;20048;-71
2021/03/26 04:17:44;;;;;;;;;;;7.10;10.20;;;;;;5090182;28;20505;-71
2021/03/26 04:20:18;;;;;;;19.02;12.48;;;7.10;10.30;;;;;;5084149;28;19961;-73
2021/03/26 04:22:52;;;;;;;21.48;12.80;;;7.10;10.40;;;;;;5086709;28;20493;-71
2021/03/26 04:25:24;;;;;;;23.13;12.93;;;7.10;10.30;;;;;;5091070;28;20056;-71
2021/03/26 04:28:03;;;;;;;22.23;13.40;;;7.10;10.30;;;;;;5090823;28;20390;-72
2021/03/26 04:30:34;;;;;;;18.80;12.95;;;7.10;10.30;;;;;;5086402;28;20044;-72
2021/03/26 04:33:03;;;;;;;20.45;12.70;;;7.10;10.30;;;;;;5090155;28;20452;-72
2021/03/26 04:35:31;;;;;;;24.38;13.82;;;7.20;10.20;;;;;;5091976;28;20043;-72
2021/03/26 04:38:07;;;;;;;22.55;14.50;;;7.20;10.10;;;;;;5090828;28;20044;-72
2021/03/26 04:40:37;;;;;;;20.17;13.13;;;7.20;10.30;;;;;;5086949;28;20130;-72
2021/03/26 04:43:20;;;;;;;27.25;14.00;;;7.20;10.00;;;;;;5089478;28;20046;-72
2021/03/26 04:45:56;;;;;;;23.95;12.98;;;7.10;10.30;;;;;;5088221;28;20040;-72
2021/03/26 04:48:30;;;;;;;19.95;13.80;;;7.10;10.30;;;;;;5088712;28;20055;-73
2021/03/26 04:51:04;;;;;;;19.92;13.38;;;7.00;10.30;;;;;;5084877;28;20044;-72
2021/03/26 04:53:39;;;;;;;20.50;13.23;;;6.90;10.60;;;;;;5084861;28;20041;-72
2021/03/26 04:56:11;;;;;;;18.30;13.25;;;6.80;10.90;;;;;;5091159;28;20109;-72
2021/03/26 04:58:42;;;;;;;19.52;13.25;;;6.80;10.50;;;;;;5090556;28;20047;-72
2021/03/26 05:01:13;;;;;;;21.85;13.20;;;6.80;11.20;;;;;;5084819;28;20052;-72
2021/03/26 05:03:45;;;;;;;25.27;13.02;;;6.70;11.20;;;;;;5085998;28;20052;-71
2021/03/26 05:06:17;;;;;;;26.58;13.95;;;6.70;11.10;;;;;;5086550;28;20048;-72
2021/03/26 05:08:50;;;;;;;20.88;13.85;;;6.70;11.30;;;;;;5089367;28;20627;-72
2021/03/26 05:11:19;;;;;;;29.00;15.57;;;6.60;11.50;;;;;;5085319;28;20044;-72
2021/03/26 05:13:52;;;;;;;30.85;16.48;;;6.50;12.20;;;;;;5089783;28;20051;-71
2021/03/26 05:16:25;;;;;;;24.15;14.77;;;6.50;12.80;;;;;;5090541;28;20051;-72
2021/03/26 05:18:58;;;;;;;29.23;15.50;;;6.40;12.70;;;;;;5090613;28;20500;-73
2021/03/26 05:21:34;;;;;;;23.85;14.50;;;6.40;13.50;;;;;;5085297;28;20075;-73
2021/03/26 05:24:13;;;;;;;24.00;14.50;;;6.40;14.00;;;;;;5090807;28;20047;-71
2021/03/26 05:26:40;;;;;;;29.75;15.57;;;6.30;13.70;;;;;;5090137;28;20581;-71
2021/03/26 05:29:09;;;;;;;23.38;14.90;;;6.40;13.50;;;;;;5089804;28;20075;-71
2021/03/26 05:31:48;;;;;;;24.73;13.57;;;6.50;13.00;;;;;;5085497;28;20048;-72
2021/03/26 05:34:21;;;;;;;21.35;13.57;;;6.50;12.50;;;;;;5090956;28;20059;-72
2021/03/26 05:37:08;;;;;;;18.73;12.82;;;6.50;13.00;;;;;;5089209;28;20044;-72
2021/03/26 05:39:37;;;;;;;24.50;13.45;;;6.50;12.30;;;;;;5089381;28;20052;-72
2021/03/26 05:42:33;;;;;;;27.42;13.60;;;6.50;12.10;;;;;;5082321;28;20052;-72
2021/03/26 05:45:22;;;;;;;24.58;13.00;;;6.50;11.70;;;;;;5088801;28;20048;-72
2021/03/26 05:48:25;;;;;;;21.27;12.88;;;6.50;11.90;;;;;;5085128;28;20749;-72
2021/03/26 05:51:05;;;;;;;19.40;13.65;;;6.50;11.90;;;;;;5082465;28;20062;-72
2021/03/26 05:53:41;;;;;;;21.15;13.85;;;6.60;11.70;;;;;;5087888;28;20040;-72
2021/03/26 05:56:21;;;;;;;29.95;15.00;;;6.60;11.00;;;;;;5091023;28;20043;-71
2021/03/26 05:59:06;;;;;;;23.55;12.93;;;6.70;11.50;;;;;;5088676;28;20089;-72
2021/03/26 06:01:47;;;;;;;22.92;12.82;;;6.80;10.70;;;;;;5084546;28;20052;-72
2021/03/26 06:04:50;;;;;;;19.08;13.23;;;6.90;10.20;;;;;;5090100;28;20131;-73
2021/03/26 06:07:51;;;;;;;20.58;12.75;;;7.00;10.30;;;;;;5089798;28;20048;-72
2021/03/26 06:10:38;;;;;;;22.25;13.00;;;7.20;9.00;;;;;;5084046;28;20058;-72
2021/03/26 06:13:33;;;;;;;20.25;12.15;;;7.60;7.50;;;;;;5084459;28;20067;-71
2021/03/26 06:16:39;;;;;;;25.83;12.90;;;7.70;6.30;;;;;;5088473;28;20074;-72
2021/03/26 06:19:56;;;;;;;29.40;12.85;;;7.90;5.40;;;;;;5088600;28;20048;-72
2021/03/26 06:22:42;;;;;;;23.00;13.23;;;7.90;4.70;;;;;;5086779;28;20049;-72
2021/03/26 06:25:31;;;;;;;22.55;13.00;;;8.00;4.80;;;;;;5086784;28;20051;-72
2021/03/26 06:28:09;;;;;;;24.27;12.60;;;7.90;4.80;;;;;;5088838;28;20081;-73
2021/03/26 06:30:48;;;;;;;28.15;13.43;;;7.90;5.10;;;;;;5085269;28;20047;-73
2021/03/26 06:34:07;;;;;;;25.80;14.27;;;8.00;4.50;;;;;;5086729;28;20046;-72
2021/03/26 06:37:02;;;;;;;30.02;14.88;;;8.10;4.10;;;;;;5089525;28;20052;-72
2021/03/26 06:40:00;;;;;;;26.85;15.07;;;8.20;3.70;;;;;;5086933;28;20044;-72
2021/03/26 06:42:37;;;;;;;;;;;8.30;3.70;;;;;;5085781;28;20082;-72
2021/03/26 06:45:23;;;;;;;22.95;14.40;;;8.30;2.90;;;;;;5090066;28;19920;-73
2021/03/26 06:47:59;;;;;;;22.95;13.55;;;8.30;2.70;;;;;;5087706;28;20048;-73
2021/03/26 06:50:45;;;;;;;21.92;13.55;;;8.30;2.90;;;;;;5082917;28;20048;-72
2021/03/26 06:53:26;;;;;;;22.10;14.27;;;8.40;2.20;;;;;;5086600;28;20036;-73
2021/03/26 06:56:22;;;;;;;27.92;14.38;;;8.70;1.50;;;;;;5088128;28;20052;-75
2021/03/26 06:59:19;;;;;;;22.23;14.15;;;8.60;1.60;;;;;;5087822;28;20044;-72
2021/03/26 07:02:21;;;;;;;26.75;14.18;;;8.90;1.00;;;;;;5081110;28;20044;-73
2021/03/26 07:05:02;;;;;;;23.30;14.07;;;9.00;1.00;;;;;;5088734;28;20051;-73
2021/03/26 07:07:58;;;;;;;42.65;14.85;;;8.90;1.00;;;;;;5089724;28;20052;-74
2021/03/26 07:10:35;;;;;;;34.67;15.55;;;9.10;1.00;;;;;;5085355;28;20516;-72
2021/03/26 07:13:28;;;;;;;24.02;15.38;;;9.10;1.00;;;;;;5085947;28;20051;-72
2021/03/26 07:16:06;;;;;;;26.85;13.80;;;9.30;1.00;;;;;;5076166;28;20052;-73
2021/03/26 07:18:48;;;;;;;32.10;16.10;;;9.50;1.00;;;;;;5088435;28;20058;-73
2021/03/26 07:21:31;;;;;;;25.85;16.17;;;9.40;1.00;;;;;;5082347;28;20051;-73
2021/03/26 07:24:40;;;;;;;25.00;15.18;;;9.80;1.00;;;;;;5086360;28;20083;-72
2021/03/26 07:27:33;;;;;;;24.75;14.88;;;9.90;1.00;;;;;;5088763;28;20052;-72
2021/03/26 07:30:18;;;;;;;30.88;15.10;;;9.90;1.00;;;;;;5082022;28;20143;-73
2021/03/26 07:33:03;;;;;;;;;;;10.20;1.00;;;;;;5082772;28;20119;-72
2021/03/26 07:36:03;;;;;;;28.20;14.38;;;10.40;1.00;;;;;;5077279;28;21308;-72
2021/03/26 07:38:54;;;;;;;34.45;15.80;;;10.70;1.00;;;;;;5088299;28;20076;-72
2021/03/26 07:41:43;;;;;;;23.50;15.43;;;10.90;1.00;;;;;;5084164;28;20063;-73
2021/03/26 07:44:30;;;;;;;24.38;14.82;;;10.90;1.00;;;;;;5084515;28;20543;-72
2021/03/26 07:47:07;;;;;;;26.77;13.95;;;11.00;1.00;;;;;;5088595;28;20048;-72
2021/03/26 07:49:50;;;;;;;29.80;14.68;;;11.00;1.00;;;;;;5082503;28;20048;-73
2021/03/26 07:52:24;;;;;;;20.00;13.60;;;10.80;1.00;;;;;;5080251;28;20160;-73
2021/03/26 07:55:23;;;;;;;18.48;13.13;;;10.80;1.00;;;;;;5084237;28;20054;-72
2021/03/26 07:58:37;;;;;;;25.08;13.20;;;11.00;1.00;;;;;;5080966;28;20052;-72
2021/03/26 08:01:21;;;;;;;23.20;13.60;;;11.40;1.00;;;;;;5000383;28;20060;-72
2021/03/26 08:04:11;;;;;;;19.75;12.82;;;11.20;1.00;;;;;;5074958;28;20152;-72
2021/03/26 08:07:19;;;;;;;19.58;13.05;;;11.60;1.00;;;;;;5081401;28;20087;-73
2021/03/26 08:10:00;;;;;;;18.92;12.18;;;11.50;1.00;;;;;;5021264;28;20056;-73
2021/03/26 08:12:41;;;;;;;21.17;12.70;;;11.70;1.00;;;;;;5083682;28;20071;-72
2021/03/26 08:15:34;;;;;;;15.90;12.27;;;11.80;1.00;;;;;;5085021;28;20751;-71
2021/03/26 08:18:14;;;;;;;21.77;11.02;;;11.90;1.00;;;;;;5058802;28;20418;-72
2021/03/26 08:20:55;;;;;;;19.50;10.77;;;12.20;1.00;;;;;;5083153;28;20059;-72
2021/03/26 08:23:49;;;;;;;18.83;11.90;;;12.40;1.00;;;;;;5083659;28;20138;-72
2021/03/26 08:26:29;;;;;;;16.35;10.80;;;12.50;1.00;;;;;;5087374;28;20048;-71
2021/03/26 08:29:16;;;;;;;18.88;10.93;;;12.60;1.00;;;;;;5089017;28;20051;-72
2021/03/26 08:32:06;;;;;;;15.75;10.38;;;12.60;1.00;;;;;;5082924;28;20044;-71
2021/03/26 08:34:55;;;;;;;21.10;11.80;;;12.60;1.00;;;;;;5091259;28;20059;-73
2021/03/26 08:37:29;;;;;;;17.20;11.02;;;12.60;1.00;;;;;;5087648;28;20059;-73
2021/03/26 08:39:59;;;;;;;17.85;11.15;;;12.30;1.00;;;;;;5086653;28;20044;-73
2021/03/26 08:42:32;;;;;;;16.33;10.80;;;12.30;1.00;;;;;;5082713;28;20048;-72
2021/03/26 08:45:20;;;;;;;14.65;10.98;;;12.10;1.00;;;;;;5089236;28;20047;-72
2021/03/26 08:47:55;;;;;;;16.70;10.43;;;12.20;1.00;;;;;;5087175;28;20085;-73
2021/03/26 08:50:34;;;;;;;21.35;11.57;;;12.60;1.00;;;;;;5086148;28;20063;-73
2021/03/26 08:53:13;;;;;;;17.02;11.25;;;12.50;1.00;;;;;;5083777;28;20052;-72
2021/03/26 08:55:59;;;;;;;26.55;10.88;;;12.80;1.00;;;;;;5088019;28;20155;-73
2021/03/26 08:58:45;;;;;;;14.45;10.95;;;13.00;1.00;;;;;;5084527;28;20048;-73
2021/03/26 09:01:46;;;;;;;17.73;10.27;;;13.30;1.00;;;;;;5084333;28;20063;-72
2021/03/26 09:04:37;;;;;;;15.15;9.43;;;13.60;1.00;;;;;;5088310;28;20505;-72
2021/03/26 09:07:13;;;;;;;15.70;10.38;;;13.60;1.00;;;;;;5088914;28;20048;-72
2021/03/26 09:09:58;;;;;;;15.95;9.45;;;14.00;1.00;;;;;;5082733;28;20048;-71
2021/03/26 09:12:47;;;;;;;18.00;10.00;;;13.80;1.00;;;;;;5086509;28;20421;-72
2021/03/26 09:15:27;;;;;;;15.63;9.73;;;13.90;1.00;;;;;;5088560;28;20044;-70
2021/03/26 09:18:04;;;;;;;16.52;9.90;;;14.30;1.00;;;;;;5089295;28;20051;-72
2021/03/26 09:20:34;;;;;;;;;;;14.10;1.00;;;;;;5083588;28;20129;-71
2021/03/26 09:23:26;;;;;;;14.23;9.38;;;14.50;1.00;;;;;;5085172;28;20407;-72
2021/03/26 09:25:55;;;;;;;15.57;9.43;;;14.60;1.00;;;;;;5087497;28;20510;-71
2021/03/26 09:28:29;;;;;;;12.40;8.50;;;14.40;1.00;;;;;;5087410;28;20533;-73
2021/03/26 09:31:02;;;;;;;;;;;14.30;1.00;;;;;;5086085;28;20052;-73
2021/03/26 09:33:30;;;;;;;14.57;10.05;;;14.50;1.00;;;;;;5086667;28;19931;-72
2021/03/26 09:36:21;;;;;;;14.05;9.90;;;14.70;1.00;;;;;;5085720;28;21296;-72
2021/03/26 09:38:59;;;;;;;12.68;8.95;;;14.60;1.00;;;;;;5086371;28;20113;-73
2021/03/26 09:41:31;;;;;;;13.75;9.10;;;14.70;1.00;;;;;;5082242;28;20066;-73
2021/03/26 09:44:08;;;;;;;14.93;9.57;;;14.50;1.00;;;;;;5086466;28;20190;-72
2021/03/26 09:46:41;;;;;;;15.93;9.52;;;14.40;1.00;;;;;;5088017;28;20062;-72
2021/03/26 09:49:17;;;;;;;18.48;10.02;;;14.70;1.00;;;;;;5086284;28;20464;-74
2021/03/26 09:51:48;;;;;;;15.27;9.80;;;14.40;1.00;;;;;;5081512;28;20498;-72
2021/03/26 09:54:25;;;;;;;16.63;10.10;;;14.60;1.00;;;;;;5087418;28;20040;-72
2021/03/26 09:57:15;;;;;;;16.60;10.20;;;14.80;1.00;;;;;;5086377;28;20052;-71
2021/03/26 09:59:49;;;;;;;14.70;9.85;;;14.80;1.00;;;;;;5084195;28;20055;-72
2021/03/26 10:02:29;;;;;;;15.43;9.30;;;14.80;1.00;;;;;;5084488;28;20054;-73
2021/03/26 10:05:02;;;;;;;14.90;9.93;;;14.90;1.00;;;;;;5088340;28;20078;-73
2021/03/26 10:07:40;;;;;;;16.27;10.10;;;15.10;1.00;;;;;;5086555;28;20051;-72
2021/03/26 10:13:08;;;;;;;17.90;12.10;;;15.10;1.00;;;;;;5083974;28;20051;-72
2021/03/26 10:15:38;;;;;;;15.90;10.93;;;14.80;1.00;;;;;;5086895;28;20040;-73
2021/03/26 10:18:11;;;;;;;14.88;10.05;;;14.90;1.00;;;;;;5087390;28;20059;-72
2021/03/26 10:20:48;;;;;;;18.35;10.93;;;15.20;1.00;;;;;;5081676;28;20077;-72
2021/03/26 10:23:28;;;;;;;17.08;10.95;;;15.10;1.00;;;;;;5083761;28;20443;-73
2021/03/26 10:26:05;;;;;;;15.65;10.18;;;15.20;1.00;;;;;;5089155;28;20054;-73
2021/03/26 10:29:20;;;;;;;15.75;9.57;;;15.10;1.00;;;;;;5090662;28;20416;-73
2021/03/26 10:31:50;;;;;;;15.95;11.05;;;15.00;1.00;;;;;;5019344;28;20041;-74
2021/03/26 10:34:28;;;;;;;18.67;10.45;;;15.30;1.00;;;;;;5084225;28;20075;-73
2021/03/26 10:37:21;;;;;;;15.63;10.70;;;15.10;1.00;;;;;;5087778;28;20071;-73
2021/03/26 10:39:53;;;;;;;21.63;10.63;;;14.80;1.00;;;;;;5084483;28;20062;-74
2021/03/26 10:42:31;;;;;;;20.70;10.32;;;15.00;1.00;;;;;;5083225;28;20063;-73
2021/03/26 10:45:35;;;;;;;16.52;9.55;;;15.10;1.00;;;;;;5088968;28;20048;-73
2021/03/26 10:48:07;;;;;;;25.92;10.93;;;15.50;1.00;;;;;;5029208;28;20063;-73
2021/03/26 10:51:10;;;;;;;19.23;11.00;;;15.50;1.00;;;;;;5075879;28;20465;-73
2021/03/26 10:53:41;;;;;;;19.38;10.52;;;15.60;1.00;;;;;;5069536;28;20584;-73
2021/03/26 10:56:21;;;;;;;26.08;11.07;;;15.70;1.00;;;;;;5085487;28;20116;-73
2021/03/26 10:58:55;;;;;;;17.35;10.68;;;16.00;1.00;;;;;;5085166;28;20454;-72
2021/03/26 11:01:24;;;;;;;17.25;10.63;;;15.60;1.00;;;;;;5081715;28;20141;-73
2021/03/26 11:03:56;;;;;;;16.55;10.38;;;15.50;1.00;;;;;;5084072;28;20046;-73
2021/03/26 11:06:29;;;;;;;17.80;11.23;;;15.80;1.00;;;;;;5086932;28;20052;-73
2021/03/26 11:09:04;;;;;;;17.88;10.60;;;15.80;1.00;;;;;;5085998;28;20501;-74
2021/03/26 11:11:44;;;;;;;18.90;11.50;;;16.20;1.00;;;;;;5079329;28;20495;-73
2021/03/26 11:14:36;;;;;;;24.58;13.15;;;16.20;1.00;;;;;;5085257;28;20047;-72
2021/03/26 11:17:16;;;;;;;22.55;11.77;;;16.20;1.00;;;;;;5086941;28;20169;-73
2021/03/26 11:20:03;;;;;;;18.38;10.75;;;15.80;1.00;;;;;;5083142;28;20048;-74
2021/03/26 11:22:33;;;;;;;21.45;10.65;;;16.30;1.00;;;;;;5081062;28;20048;-73
2021/03/26 11:25:04;;;;;;;14.23;10.50;;;16.50;1.00;;;;;;5082881;28;20066;-73
2021/03/26 11:27:44;;;;;;;18.77;11.77;;;16.50;1.00;;;;;;5086120;28;20748;-73
2021/03/26 11:30:35;;;;;;;17.77;10.68;;;16.00;1.00;;;;;;5082196;28;20066;-74
2021/03/26 11:33:12;;;;;;;22.48;9.05;;;16.60;1.00;;;;;;5083696;28;20425;-74
2021/03/26 11:35:43;;;;;;;13.23;8.35;;;16.90;1.00;;;;;;5083914;28;20056;-73
2021/03/26 11:38:15;;;;;;;13.70;9.15;;;16.80;1.00;;;;;;5085704;28;20798;-74
2021/03/26 11:40:46;;;;;;;14.35;8.88;;;16.50;1.00;;;;;;5082581;28;20494;-72
2021/03/26 11:43:18;;;;;;;11.70;8.07;;;15.90;1.00;;;;;;5084911;28;20136;-72
2021/03/26 11:45:56;;;;;;;14.07;7.28;;;16.60;1.00;;;;;;5084374;28;20067;-72
2021/03/26 11:48:37;;;;;;;18.15;7.20;;;16.80;1.00;;;;;;5087834;28;20076;-72
2021/03/26 11:51:12;;;;;;;11.48;7.03;;;16.70;1.00;;;;;;5080932;28;20130;-74
2021/03/26 11:53:47;;;;;;;12.32;7.32;;;16.50;1.00;;;;;;5083567;28;20558;-74
2021/03/26 11:56:26;;;;;;;10.95;7.10;;;16.80;1.00;;;;;;5086579;28;20050;-74
2021/03/26 11:59:27;;;;;;;13.70;6.43;;;17.10;1.00;;;;;;5087121;28;20044;-73
2021/03/26 12:02:02;;;;;;;10.88;6.88;;;17.40;1.00;;;;;;5056914;28;20127;-73
2021/03/26 12:04:36;;;;;;;9.27;6.05;;;17.40;1.00;;;;;;5093311;28;20043;-74
2021/03/26 12:07:09;;;;;;;8.02;5.18;;;17.30;1.00;;;;;;5089363;28;20140;-73
2021/03/26 12:09:41;;;;;;;8.70;5.35;;;17.30;1.00;;;;;;5088414;28;20052;-76
2021/03/26 12:12:17;;;;;;;11.65;6.00;;;17.10;1.00;;;;;;5086860;28;20520;-76
2021/03/26 12:14:53;;;;;;;9.75;5.28;;;17.50;1.00;;;;;;5088074;28;20047;-73
2021/03/26 12:17:36;;;;;;;13.32;4.97;;;18.00;1.00;;;;;;5087027;28;20533;-73
2021/03/26 12:20:18;;;;;;;9.10;4.90;;;18.20;1.00;;;;;;5081113;28;20095;-73
2021/03/26 12:23:01;;;;;;;7.45;5.03;;;18.20;1.00;;;;;;5082749;28;20441;-74
2021/03/26 12:25:37;;;;;;;9.00;5.78;;;18.10;1.00;;;;;;5088123;28;20711;-72
2021/03/26 12:28:12;;;;;;;7.85;5.50;;;17.50;1.00;;;;;;5085777;28;20044;-73
2021/03/26 12:30:49;;;;;;;11.00;5.72;;;17.70;1.00;;;;;;5083003;28;20052;-72
2021/03/26 12:33:27;;;;;;;13.60;5.45;;;18.10;1.00;;;;;;5080563;28;20098;-72
2021/03/26 12:35:58;;;;;;;10.73;5.72;;;17.80;1.00;;;;;;5086194;28;20428;-73
2021/03/26 12:38:44;;;;;;;11.75;5.97;;;18.30;1.00;;;;;;5087196;28;20048;-73
2021/03/26 12:41:41;;;;;;;17.52;6.03;;;18.50;1.00;;;;;;5084024;28;20074;-73
2021/03/26 12:44:17;;;;;;;11.02;6.60;;;18.40;1.00;;;;;;5088541;28;20051;-72
2021/03/26 12:47:00;;;;;;;15.45;5.70;;;18.00;1.00;;;;;;5085434;28;20044;-73
2021/03/26 12:49:34;;;;;;;8.13;4.90;;;17.80;1.00;;;;;;5082199;28;20421;-72
2021/03/26 12:52:07;;;;;;;11.18;5.15;;;18.10;1.00;;;;;;5077009;28;20129;-73
2021/03/26 12:54:39;;;;;;;9.63;5.10;;;17.90;1.00;;;;;;5084494;28;20093;-72
2021/03/26 12:57:12;;;;;;;8.13;5.43;;;18.10;1.00;;;;;;5088518;28;20043;-73
2021/03/26 12:59:42;;;;;;;8.82;5.70;;;17.80;1.00;;;;;;5082974;28;20066;-74
2021/03/26 13:02:22;;;;;;;8.30;4.93;;;17.70;1.00;;;;;;5078045;28;20405;-74
2021/03/26 13:04:58;;;;;;;7.75;4.70;;;17.60;1.00;;;;;;5085236;28;20050;-74
2021/03/26 13:07:33;;;;;;;6.90;5.25;;;18.10;1.00;;;;;;5084054;28;20048;-74
2021/03/26 13:10:24;;;;;;;12.88;6.57;;;18.10;1.00;;;;;;5081614;28;20055;-73
2021/03/26 13:12:59;;;;;;;13.68;7.35;;;17.90;1.00;;;;;;5083731;28;20067;-75
2021/03/26 13:15:28;;;;;;;8.88;6.40;;;16.70;1.00;;;;;;5083165;28;20041;-75
2021/03/26 13:18:03;;;;;;;10.32;6.90;;;16.70;1.00;;;;;;5089923;28;20048;-76
2021/03/26 13:20:47;;;;;;;11.52;6.07;;;17.10;1.00;;;;;;5078071;28;20039;-75
2021/03/26 13:23:18;;;;;;;12.18;6.22;;;17.20;1.00;;;;;;5082883;28;20086;-75
2021/03/26 13:25:50;;;;;;;12.43;6.10;;;17.40;1.00;;;;;;5082498;28;20074;-75
2021/03/26 13:28:22;;;;;;;7.78;4.78;;;17.90;1.00;;;;;;5076502;28;20067;-75
2021/03/26 13:30:59;;;;;;;9.25;5.68;;;18.10;1.00;;;;;;5081417;28;20052;-74
2021/03/26 13:33:53;;;;;;;9.95;5.47;;;17.50;1.00;;;;;;5082135;28;20044;-74
2021/03/26 13:36:26;;;;;;;10.00;6.20;;;17.40;1.00;;;;;;5068322;28;20056;-74
2021/03/26 13:39:10;;;;;;;12.75;6.25;;;17.60;1.00;;;;;;5084337;28;20076;-74
2021/03/26 13:41:43;;;;;;;12.35;6.05;;;17.00;1.00;;;;;;5069479;28;20059;-76
2021/03/26 13:44:52;;;;;;;8.43;5.95;;;17.00;1.00;;;;;;5084051;28;20078;-74